Time;durP1;ratioP1;P1;durP2;ratioP2;P2;SDS_P1;SDS_P2;PMS_P1;PMS_P2;Temp;Humidity;BMP_temperature;BMP_pressure;BME280_temperature;BME280_humidity;BME280_pressure;Samples;Min_cycle;Max_cycle;Signal;HPM_P1;HPM_P2
2021/12/22 00:01:48;;;;;;;;;;;-0.30;84.10;;;;;;5028257;28;84042;-43
2021/12/22 00:04:13;;;;;;;;;;;-0.30;84.10;;;;;;5028696;28;84417;-44
2021/12/22 00:06:39;;;;;;;;;;;-0.30;84.20;;;;;;5028774;28;82030;-44
2021/12/22 00:09:06;;;;;;;;;;;-0.30;84.10;;;;;;5028868;28;83939;-44
2021/12/22 00:11:31;;;;;;;;;;;-0.30;84.20;;;;;;5028586;28;84358;-44
2021/12/22 00:13:57;;;;;;;;;;;-0.30;84.20;;;;;;5031183;28;82121;-44
2021/12/22 00:16:22;;;;;;;;;;;-0.30;84.10;;;;;;5028229;28;83499;-44
2021/12/22 00:18:48;;;;;;;;;;;-0.30;84.10;;;;;;5029102;28;81441;-44
2021/12/22 00:21:14;;;;;;;;;;;-0.40;84.10;;;;;;5028859;28;81906;-44
2021/12/22 00:23:40;;;;;;;;;;;-0.40;84.20;;;;;;5028314;28;83496;-44
2021/12/22 00:26:05;;;;;;;;;;;-0.40;84.20;;;;;;5027934;28;82772;-44
2021/12/22 00:28:32;;;;;;;;;;;-0.40;84.20;;;;;;5028456;28;84986;-44
2021/12/22 00:30:58;;;;;;;;;;;-0.40;84.10;;;;;;5028519;28;83486;-44
2021/12/22 00:33:24;;;;;;;;;;;-0.40;84.20;;;;;;5028647;28;81960;-44
2021/12/22 00:35:49;;;;;;;;;;;-0.40;84.10;;;;;;5031354;28;82483;-44
2021/12/22 00:38:16;;;;;;;;;;;-0.50;84.10;;;;;;5028226;28;81857;-44
2021/12/22 00:40:42;;;;;;;;;;;-0.40;84.00;;;;;;5028181;28;83608;-44
2021/12/22 00:43:08;;;;;;;;;;;-0.40;84.20;;;;;;5028569;28;83512;-44
2021/12/22 00:45:36;;;;;;;;;;;-0.50;84.30;;;;;;5028020;28;82153;-44
2021/12/22 00:48:06;;;;;;;;;;;-0.40;84.00;;;;;;5028082;28;83800;-44
2021/12/22 00:50:32;;;;;;;;;;;-0.50;84.20;;;;;;5027226;28;85401;-43
2021/12/22 00:52:57;;;;;;;;;;;-0.50;84.10;;;;;;5028051;28;82042;-44
2021/12/22 00:55:23;;;;;;;;;;;-0.50;84.10;;;;;;5027936;28;84510;-44
2021/12/22 00:57:49;;;;;;;;;;;-0.50;84.20;;;;;;5030335;28;84545;-44
2021/12/22 01:00:15;;;;;;;;;;;-0.50;84.20;;;;;;5027939;28;83861;-44
2021/12/22 01:02:41;;;;;;;;;;;-0.50;84.20;;;;;;5028000;28;83601;-44
2021/12/22 01:05:07;;;;;;;;;;;-0.50;84.20;;;;;;5027893;28;81728;-44
2021/12/22 01:07:33;;;;;;;;;;;-0.50;84.10;;;;;;5028607;28;83946;-43
2021/12/22 01:09:58;;;;;;;;;;;-0.60;84.10;;;;;;5027954;28;82149;-43
2021/12/22 01:12:24;;;;;;;;;;;-0.50;84.10;;;;;;5027819;28;82088;-44
2021/12/22 01:14:49;;;;;;;;;;;-0.50;84.10;;;;;;5026631;28;84482;-44
2021/12/22 01:17:16;;;;;;;;;;;-0.50;84.10;;;;;;5027804;28;83207;-43
2021/12/22 01:25:06;;;;;;;;;;;-0.60;84.20;;;;;;5021406;28;83129;-43
2021/12/22 01:27:35;;;;;;;;;;;-0.60;84.30;;;;;;5027880;28;82881;-43
2021/12/22 01:30:03;;;;;;;;;;;-0.60;84.40;;;;;;5027161;28;84468;-43
2021/12/22 01:32:29;;;;;;;;;;;-0.60;84.30;;;;;;5028010;28;81367;-44
2021/12/22 01:34:54;;;;;;;;;;;-0.60;84.30;;;;;;5027575;28;81986;-43
2021/12/22 01:37:20;;;;;;;;;;;-0.60;84.20;;;;;;5027187;28;83486;-44
2021/12/22 01:39:46;;;;;;;;;;;-0.70;84.30;;;;;;5026376;28;83032;-44
2021/12/22 01:42:11;;;;;;;;;;;-0.60;84.30;;;;;;5030256;28;84322;-43
2021/12/22 01:50:09;;;;;;;;;;;-0.70;84.40;;;;;;5027006;28;82188;-43
2021/12/22 01:52:34;;;;;;;;;;;-0.70;84.40;;;;;;5027253;28;82333;-43
2021/12/22 01:55:07;;;;;;;;;;;-0.70;84.30;;;;;;5027206;28;83858;-43
2021/12/22 01:57:42;;;;;;;;;;;-0.70;84.30;;;;;;5027430;28;82765;-43
2021/12/22 02:00:08;;;;;;;;;;;-0.70;84.40;;;;;;5027127;28;81861;-43
2021/12/22 02:02:33;;;;;;;;;;;-0.70;84.40;;;;;;5028933;28;85174;-43
2021/12/22 02:04:59;;;;;;;;;;;-0.70;84.30;;;;;;5026203;28;82814;-43
2021/12/22 02:07:24;;;;;;;;;;;-0.70;84.30;;;;;;5026859;28;85631;-43
2021/12/22 02:12:16;;;;;;;;;;;-0.80;84.30;;;;;;5027082;28;81718;-43
2021/12/22 02:14:42;;;;;;;;;;;-0.80;84.30;;;;;;5026378;28;83911;-43
2021/12/22 02:17:10;;;;;;;;;;;-0.80;84.20;;;;;;5026836;28;84489;-43
2021/12/22 02:19:43;;;;;;;;;;;-0.80;84.40;;;;;;5026620;28;82056;-43
2021/12/22 02:22:11;;;;;;;;;;;-0.80;84.40;;;;;;5027709;28;81650;-43
2021/12/22 02:24:37;;;;;;;;;;;-0.80;84.40;;;;;;5029354;28;82876;-43
2021/12/22 02:27:09;;;;;;;;;;;-0.90;84.30;;;;;;5026793;28;82882;-43
2021/12/22 02:29:36;;;;;;;;;;;-0.90;84.30;;;;;;5025915;28;85478;-43
2021/12/22 02:32:08;;;;;;;;;;;-0.90;84.40;;;;;;5026418;28;82098;-43
2021/12/22 02:34:45;;;;;;;;;;;-0.90;84.40;;;;;;5026546;28;84400;-43
2021/12/22 02:37:15;;;;;;;;;;;-0.90;84.30;;;;;;5026388;28;84501;-43
2021/12/22 02:39:46;;;;;;;;;;;-0.90;84.30;;;;;;5026430;28;81821;-43
2021/12/22 02:42:13;;;;;;;;;;;-0.90;84.30;;;;;;5026481;28;84077;-43
2021/12/22 02:44:38;;;;;;;;;;;-0.90;84.30;;;;;;5026177;28;84558;-43
2021/12/22 02:47:20;;;;;;;;;;;-0.90;84.30;;;;;;5029739;28;81372;-43
2021/12/22 02:49:46;;;;;;;;;;;-0.90;84.30;;;;;;5026330;28;84557;-43
2021/12/22 02:52:12;;;;;;;;;;;-0.90;84.30;;;;;;5026338;28;81996;-43
2021/12/22 02:54:44;;;;;;;;;;;-1.00;84.30;;;;;;5025906;28;83836;-43
2021/12/22 02:57:23;;;;;;;;;;;-1.00;84.30;;;;;;5026107;28;84801;-43
2021/12/22 03:00:25;;;;;;;;;;;-1.00;84.30;;;;;;5026765;28;81744;-43
2021/12/22 03:03:01;;;;;;;;;;;-1.00;84.40;;;;;;5025999;28;82730;-43
2021/12/22 03:05:28;;;;;;;;;;;-1.00;84.40;;;;;;5025937;28;84620;-43
2021/12/22 03:07:54;;;;;;;;;;;-1.00;84.30;;;;;;5026212;28;82085;-43
2021/12/22 03:10:20;;;;;;;;;;;-1.00;84.30;;;;;;5028689;28;83625;-43
2021/12/22 03:12:50;;;;;;;;;;;-1.00;84.40;;;;;;5026670;28;81079;-43
2021/12/22 03:15:16;;;;;;;;;;;-1.10;84.30;;;;;;5028119;28;84154;-43
2021/12/22 03:17:41;;;;;;;;;;;-1.10;84.40;;;;;;5029288;28;84423;-43
2021/12/22 03:20:10;;;;;;;;;;;-1.10;84.40;;;;;;5028645;28;82864;-43
2021/12/22 03:22:36;;;;;;;;;;;-1.10;84.30;;;;;;5029699;28;85371;-43
2021/12/22 03:25:03;;;;;;;;;;;-1.10;84.40;;;;;;5028017;28;85905;-43
2021/12/22 03:27:28;;;;;;;;;;;-1.10;84.30;;;;;;5029662;28;82012;-43
2021/12/22 03:29:54;;;;;;;;;;;-1.10;84.40;;;;;;5029407;28;82879;-43
2021/12/22 03:32:19;;;;;;;;;;;-1.10;84.50;;;;;;5031952;28;84408;-43
2021/12/22 03:34:45;;;;;;;;;;;-1.10;84.40;;;;;;5029317;28;82900;-43
2021/12/22 03:37:12;;;;;;;;;;;-1.10;84.30;;;;;;5029678;28;82551;-43
2021/12/22 03:39:38;;;;;;;;;;;-1.20;84.40;;;;;;5029100;28;81987;-43
2021/12/22 03:42:05;;;;;;;;;;;-1.10;84.40;;;;;;5029415;28;84131;-43
2021/12/22 03:44:31;;;;;;;;;;;-1.20;84.30;;;;;;5028165;28;86924;-43
2021/12/22 03:46:58;;;;;;;;;;;-1.20;84.30;;;;;;5029147;28;82103;-43
2021/12/22 03:49:24;;;;;;;;;;;-1.20;84.40;;;;;;5028816;28;83585;-43
2021/12/22 03:51:49;;;;;;;;;;;-1.20;84.30;;;;;;5029076;28;82816;-43
2021/12/22 03:54:15;;;;;;;;;;;-1.20;84.30;;;;;;5031670;28;81677;-43
2021/12/22 03:56:40;;;;;;;;;;;-1.20;84.30;;;;;;5028657;28;84720;-43
2021/12/22 03:59:06;;;;;;;;;;;-1.20;84.30;;;;;;5028923;28;82108;-43
2021/12/22 04:01:32;;;;;;;;;;;-1.20;84.20;;;;;;5029748;28;82417;-43
2021/12/22 04:04:02;;;;;;;;;;;-1.20;84.40;;;;;;5028439;28;84600;-43
2021/12/22 04:06:28;;;;;;;;;;;-1.30;84.20;;;;;;5028709;28;81994;-43
2021/12/22 04:08:54;;;;;;;;;;;-1.30;84.30;;;;;;5028123;28;83708;-43
2021/12/22 04:11:19;;;;;;;;;;;-1.30;84.30;;;;;;5028463;28;84405;-43
2021/12/22 04:13:45;;;;;;;;;;;-1.30;84.20;;;;;;5031633;28;82089;-43
2021/12/22 04:16:10;;;;;;;;;;;-1.30;84.30;;;;;;5028382;28;84482;-43
2021/12/22 04:18:37;;;;;;;;;;;-1.30;84.30;;;;;;5028415;28;82064;-43
2021/12/22 04:21:02;;;;;;;;;;;-1.30;84.30;;;;;;5028650;28;83710;-43
2021/12/22 04:23:28;;;;;;;;;;;-1.30;84.20;;;;;;5028297;28;84633;-43
2021/12/22 04:25:53;;;;;;;;;;;-1.30;84.30;;;;;;5028418;28;82470;-43
2021/12/22 04:28:19;;;;;;;;;;;-1.30;84.70;;;;;;5028544;28;83386;-43
2021/12/22 04:30:49;;;;;;;;;;;-1.30;84.30;;;;;;5028206;28;84624;-43
2021/12/22 04:33:15;;;;;;;;;;;-1.30;84.20;;;;;;5027396;28;83012;-43
2021/12/22 04:35:41;;;;;;;;;;;-1.40;84.30;;;;;;5031308;28;82319;-43
2021/12/22 04:38:07;;;;;;;;;;;-1.40;84.00;;;;;;5028307;28;82182;-43
2021/12/22 04:40:32;;;;;;;;;;;-1.40;84.30;;;;;;5028436;28;84212;-43
2021/12/22 04:42:58;;;;;;;;;;;-1.40;84.20;;;;;;5028109;28;84447;-43
2021/12/22 04:45:23;;;;;;;;;;;-1.40;84.10;;;;;;5026818;28;81833;-43
2021/12/22 04:47:51;;;;;;;;;;;-1.40;84.20;;;;;;5028284;28;83838;-43
2021/12/22 04:50:18;;;;;;;;;;;-1.40;84.20;;;;;;5028433;28;82748;-43
2021/12/22 04:52:51;;;;;;;;;;;-1.50;84.20;;;;;;5028365;28;81955;-43
2021/12/22 04:55:17;;;;;;;;;;;-1.50;84.20;;;;;;5028094;28;83976;-43
2021/12/22 04:57:43;;;;;;;;;;;-1.50;84.30;;;;;;5030041;28;83854;-43
2021/12/22 05:00:10;;;;;;;;;;;-1.50;84.20;;;;;;5027941;28;84612;-43
2021/12/22 05:02:35;;;;;;;;;;;-1.50;84.10;;;;;;5027671;28;82087;-43
2021/12/22 05:05:01;;;;;;;;;;;-1.50;84.20;;;;;;5027895;28;82120;-43
2021/12/22 05:07:27;;;;;;;;;;;-1.50;84.20;;;;;;5026835;28;85447;-43
2021/12/22 05:09:52;;;;;;;;;;;-1.50;84.30;;;;;;5027722;28;84429;-43
2021/12/22 05:12:18;;;;;;;;;;;-1.50;84.20;;;;;;5027802;28;81795;-43
2021/12/22 05:14:47;;;;;;;;;;;-1.50;84.30;;;;;;5027527;28;84422;-43
2021/12/22 05:17:20;;;;;;;;;;;-1.60;84.10;;;;;;5027119;28;84415;-43
2021/12/22 05:19:45;;;;;;;;;;;-1.60;84.10;;;;;;5030517;28;81784;-43
2021/12/22 05:22:11;;;;;;;;;;;-1.60;84.20;;;;;;5027024;28;83870;-43
2021/12/22 05:24:36;;;;;;;;;;;-1.60;84.20;;;;;;5026412;28;81726;-43
2021/12/22 05:27:02;;;;;;;;;;;-1.60;84.20;;;;;;5027788;28;81858;-43
2021/12/22 05:29:27;;;;;;;;;;;-1.60;84.20;;;;;;5027343;28;84533;-44
2021/12/22 05:31:55;;;;;;;;;;;-1.60;84.20;;;;;;5027403;28;82111;-43
2021/12/22 05:34:21;;;;;;;;;;;-1.60;84.20;;;;;;5027594;28;81878;-43
2021/12/22 05:36:46;;;;;;;;;;;-1.60;84.10;;;;;;5026446;28;82844;-43
2021/12/22 05:39:12;;;;;;;;;;;-1.60;84.20;;;;;;5028258;28;81311;-43
2021/12/22 05:41:37;;;;;;;;;;;-1.70;84.20;;;;;;5030109;28;83410;-43
2021/12/22 05:44:03;;;;;;;;;;;-1.70;84.00;;;;;;5027360;28;82206;-43
2021/12/22 05:46:29;;;;;;;;;;;-1.70;84.00;;;;;;5026505;28;84124;-43
2021/12/22 05:48:54;;;;;;;;;;;-1.70;84.10;;;;;;5027095;28;84434;-44
2021/12/22 05:51:22;;;;;;;;;;;-1.70;84.10;;;;;;5027390;28;82149;-43
2021/12/22 05:53:47;;;;;;;;;;;-1.70;84.10;;;;;;5027057;28;83734;-43
2021/12/22 05:56:13;;;;;;;;;;;-1.70;84.20;;;;;;5026919;28;85096;-43
2021/12/22 05:58:38;;;;;;;;;;;-1.70;84.20;;;;;;5027095;28;82005;-44
2021/12/22 06:01:04;;;;;;;;;;;-1.70;84.10;;;;;;5027269;28;81800;-43
2021/12/22 06:03:29;;;;;;;;;;;-1.80;84.00;;;;;;5029948;28;82943;-43
2021/12/22 06:05:55;;;;;;;;;;;-1.80;84.20;;;;;;5027218;28;83418;-43
2021/12/22 06:08:20;;;;;;;;;;;-1.80;84.10;;;;;;5026737;28;84332;-43
2021/12/22 06:10:46;;;;;;;;;;;-1.80;84.20;;;;;;5026345;28;83073;-43
2021/12/22 06:13:12;;;;;;;;;;;-1.80;84.30;;;;;;5027163;28;82839;-43
2021/12/22 06:15:38;;;;;;;;;;;-1.80;84.20;;;;;;5025986;28;83750;-43
2021/12/22 06:18:04;;;;;;;;;;;-1.80;84.20;;;;;;5026927;28;82152;-44
2021/12/22 06:20:30;;;;;;;;;;;-1.80;84.80;;;;;;5026808;28;83707;-43
2021/12/22 06:22:56;;;;;;;;;;;-1.80;84.20;;;;;;5029500;28;84411;-43
2021/12/22 06:25:22;;;;;;;;;;;-1.90;84.20;;;;;;5026752;28;83901;-43
2021/12/22 06:27:48;;;;;;;;;;;-1.80;84.20;;;;;;5026949;28;84398;-43
2021/12/22 06:30:13;;;;;;;;;;;-1.90;84.00;;;;;;5026499;28;82016;-43
2021/12/22 06:32:39;;;;;;;;;;;-1.90;84.10;;;;;;5026985;28;84173;-43
2021/12/22 06:35:05;;;;;;;;;;;-1.90;84.20;;;;;;5025827;28;85870;-43
2021/12/22 06:37:30;;;;;;;;;;;-1.90;84.10;;;;;;5026602;28;81741;-43
2021/12/22 06:39:56;;;;;;;;;;;-1.90;84.20;;;;;;5026564;28;83327;-43
2021/12/22 06:42:23;;;;;;;;;;;-1.90;84.10;;;;;;5026628;28;82835;-43
2021/12/22 06:44:48;;;;;;;;;;;-1.90;84.10;;;;;;5029192;28;81808;-43
2021/12/22 06:47:14;;;;;;;;;;;-1.90;84.00;;;;;;5026164;28;85169;-43
2021/12/22 06:49:40;;;;;;;;;;;-1.90;84.10;;;;;;5029490;28;82084;-43
2021/12/22 06:52:05;;;;;;;;;;;-1.90;84.20;;;;;;5030611;28;84042;-44
2021/12/22 06:54:31;;;;;;;;;;;-2.00;84.00;;;;;;5030076;28;82921;-43
2021/12/22 06:56:56;;;;;;;;;;;-1.90;84.20;;;;;;5029881;28;81832;-44
2021/12/22 06:59:22;;;;;;;;;;;-2.00;84.10;;;;;;5029391;28;83865;-43
2021/12/22 07:01:49;;;;;;;;;;;-2.00;84.00;;;;;;5029556;28;83506;-43
2021/12/22 07:04:15;;;;;;;;;;;-2.00;84.10;;;;;;5029904;28;82119;-44
2021/12/22 07:06:41;;;;;;;;;;;-2.00;84.00;;;;;;5032557;28;83839;-44
2021/12/22 07:09:07;;;;;;;;;;;-2.00;84.00;;;;;;5029885;28;82012;-44
2021/12/22 07:11:34;;;;;;;;;;;-2.00;84.00;;;;;;5029804;28;83836;-45
2021/12/22 07:14:00;;;;;;;;;;;-2.00;84.00;;;;;;5025734;28;88538;-45
2021/12/22 07:16:25;;;;;;;;;;;-2.00;84.00;;;;;;5026603;28;86376;-44
2021/12/22 07:18:51;;;;;;;;;;;-2.00;84.20;;;;;;5026402;28;88485;-44
2021/12/22 07:21:16;;;;;;;;;;;-2.00;84.20;;;;;;5026079;28;88748;-44
2021/12/22 07:23:42;;;;;;;;;;;-2.00;84.10;;;;;;5025615;28;88061;-44
2021/12/22 07:26:13;;;;;;;;;;;-2.00;84.00;;;;;;5026291;28;90201;-43
2021/12/22 07:28:39;;;;;;;;;;;-2.10;84.00;;;;;;5028626;28;89354;-44
2021/12/22 07:31:05;;;;;;;;;;;-2.00;84.10;;;;;;5025942;28;89051;-44
2021/12/22 07:33:30;;;;;;;;;;;-2.00;84.10;;;;;;5025809;28;89965;-44
2021/12/22 07:36:00;;;;;;;;;;;-2.10;84.00;;;;;;5025948;28;87054;-45
2021/12/22 07:38:30;;;;;;;;;;;-2.10;84.80;;;;;;5026038;28;87745;-44
2021/12/22 07:40:59;;;;;;;;;;;-2.10;84.20;;;;;;5026069;28;87746;-44
2021/12/22 07:43:25;;;;;;;;;;;-2.10;84.00;;;;;;5025675;28;87120;-44
2021/12/22 07:45:50;;;;;;;;;;;-2.10;84.00;;;;;;5025771;28;87893;-43
2021/12/22 07:48:16;;;;;;;;;;;-2.10;84.00;;;;;;5024663;28;90750;-44
2021/12/22 07:50:42;;;;;;;;;;;-2.10;84.20;;;;;;5028986;28;86981;-44
2021/12/22 07:53:07;;;;;;;;;;;-2.10;84.20;;;;;;5025411;28;89378;-44
2021/12/22 07:55:33;;;;;;;;;;;-2.10;84.20;;;;;;5025738;28;87059;-44
2021/12/22 07:57:59;;;;;;;;;;;-2.10;84.20;;;;;;5025842;28;87590;-44
2021/12/22 08:00:24;;;;;;;;;;;-2.10;84.20;;;;;;5024179;28;89315;-44
2021/12/22 08:02:50;;;;;;;;;;;-2.10;84.20;;;;;;5025782;28;87125;-44
2021/12/22 08:05:15;;;;;;;;;;;-2.10;84.30;;;;;;5025878;28;88783;-44
2021/12/22 08:07:41;;;;;;;;;;;-2.10;84.40;;;;;;5025307;28;89958;-44
2021/12/22 08:10:07;;;;;;;;;;;-2.10;84.40;;;;;;5025657;28;87259;-44
2021/12/22 08:12:32;;;;;;;;;;;-2.10;84.30;;;;;;5027278;28;88875;-44
2021/12/22 08:14:58;;;;;;;;;;;-2.20;84.30;;;;;;5024348;28;87142;-46
2021/12/22 08:17:25;;;;;;;;;;;-2.20;84.40;;;;;;5025437;28;88875;-44
2021/12/22 08:19:51;;;;;;;;;;;-2.20;84.40;;;;;;5024956;28;89480;-44
2021/12/22 08:22:16;;;;;;;;;;;-2.20;84.50;;;;;;5025329;28;87135;-44
2021/12/22 08:24:42;;;;;;;;;;;-2.20;84.40;;;;;;5025148;28;89421;-44
2021/12/22 08:27:07;;;;;;;;;;;-2.20;84.50;;;;;;5025100;28;87615;-44
2021/12/22 08:29:33;;;;;;;;;;;-2.20;84.40;;;;;;5025254;28;86514;-44
2021/12/22 08:31:58;;;;;;;;;;;-2.20;84.60;;;;;;5028129;28;87039;-44
2021/12/22 08:34:34;;;;;;;;;;;-2.20;84.50;;;;;;5025404;28;87108;-44
2021/12/22 08:39:44;;;;;;;;;;;-2.20;84.40;;;;;;5024802;28;87388;-44
2021/12/22 08:42:10;;;;;;;;;;;-2.20;84.40;;;;;;5024654;28;86959;-44
2021/12/22 08:44:36;;;;;;;;;;;-2.10;84.30;;;;;;5025022;28;88660;-44
2021/12/22 08:47:02;;;;;;;;;;;-2.20;84.40;;;;;;5024678;28;88675;-44
2021/12/22 08:49:27;;;;;;;;;;;-2.20;84.50;;;;;;5024664;28;87141;-44
2021/12/22 08:51:53;;;;;;;;;;;-2.20;84.40;;;;;;5024973;28;88965;-44
2021/12/22 08:54:19;;;;;;;;;;;-2.20;84.30;;;;;;5027640;28;87794;-44
2021/12/22 08:56:45;;;;;;;;;;;-2.20;84.30;;;;;;5024324;28;87463;-44
2021/12/22 08:59:12;;;;;;;;;;;-2.20;84.50;;;;;;5024602;28;87078;-44
2021/12/22 09:01:38;;;;;;;;;;;-2.20;84.50;;;;;;5023971;28;88089;-44
2021/12/22 09:04:04;;;;;;;;;;;-2.20;84.50;;;;;;5024517;28;89666;-44
2021/12/22 09:06:29;;;;;;;;;;;-2.20;84.50;;;;;;5024189;28;88658;-44
2021/12/22 09:08:55;;;;;;;;;;;-2.20;84.50;;;;;;5024606;28;87163;-44
2021/12/22 09:11:21;;;;;;;;;;;-2.20;84.70;;;;;;5024448;28;89177;-44
2021/12/22 09:13:46;;;;;;;;;;;-2.20;84.70;;;;;;5024072;28;89510;-44
2021/12/22 09:16:12;;;;;;;;;;;-2.30;84.90;;;;;;5026949;28;87147;-44
2021/12/22 09:18:38;;;;;;;;;;;-2.20;85.00;;;;;;5024405;28;88825;-44
2021/12/22 09:21:04;;;;;;;;;;;-2.20;84.90;;;;;;5024345;28;87173;-44
2021/12/22 09:23:30;;;;;;;;;;;-2.20;85.10;;;;;;5024176;28;89052;-44
2021/12/22 09:25:56;;;;;;;;;;;-2.30;85.10;;;;;;5023039;28;91050;-44
2021/12/22 09:28:21;;;;;;;;;;;-2.30;84.90;;;;;;5022968;28;87128;-44
2021/12/22 09:30:47;;;;;;;;;;;-2.20;85.00;;;;;;5024114;28;88635;-44
2021/12/22 09:33:15;;;;;;;;;;;-2.30;85.20;;;;;;5023952;28;87843;-44
2021/12/22 09:35:41;;;;;;;;;;;-2.30;85.10;;;;;;5024113;28;86833;-44
2021/12/22 09:38:07;;;;;;;;;;;-2.30;85.10;;;;;;5026473;28;88989;-44
2021/12/22 09:40:33;;;;;;;;;;;-2.30;85.30;;;;;;5024141;28;87101;-44
2021/12/22 09:42:58;;;;;;;;;;;-2.30;85.50;;;;;;5024293;28;88991;-44
2021/12/22 09:45:25;;;;;;;;;;;-2.30;85.20;;;;;;5023759;28;88143;-45
2021/12/22 09:53:12;;;;;;;;;;;-2.20;84.90;;;;;;5023141;28;87936;-44
2021/12/22 09:55:38;;;;;;;;;;;-2.30;85.30;;;;;;5023887;28;87079;-44
2021/12/22 09:58:04;;;;;;;;;;;-2.30;85.30;;;;;;5023764;28;88799;-44
2021/12/22 10:00:32;;;;;;;;;;;-2.30;85.00;;;;;;5026575;28;87647;-44
2021/12/22 10:02:58;;;;;;;;;;;-2.20;85.10;;;;;;5023574;28;88874;-44
2021/12/22 10:05:24;;;;;;;;;;;-2.10;84.80;;;;;;5023217;28;89315;-44
2021/12/22 10:08:05;;;;;;;;;;;-2.10;84.90;;;;;;5024230;28;86256;-44
2021/12/22 10:10:30;;;;;;;;;;;-2.20;85.40;;;;;;5023603;28;88053;-44
2021/12/22 10:13:06;;;;;;;;;;;-2.20;85.70;;;;;;5023117;28;89407;-44
2021/12/22 10:15:34;;;;;;;;;;;-2.30;85.80;;;;;;5022404;28;88068;-44
2021/12/22 10:18:15;;;;;;;;;;;-2.20;85.70;;;;;;5023426;28;89759;-44
2021/12/22 10:20:42;;;;;;;;;;;-2.20;85.80;;;;;;5023228;28;88540;-44
2021/12/22 10:23:22;;;;;;;;;;;-2.30;85.80;;;;;;5026132;28;86813;-44
2021/12/22 10:25:54;;;;;;;;;;;-2.20;86.00;;;;;;5023172;28;89350;-44
2021/12/22 10:28:20;;;;;;;;;;;-2.20;85.70;;;;;;5023329;28;87141;-44
2021/12/22 10:30:46;;;;;;;;;;;-2.20;85.70;;;;;;5023292;28;88945;-45
2021/12/22 10:33:12;;;;;;;;;;;-2.20;85.80;;;;;;5023722;28;88856;-44
2021/12/22 10:35:39;;;;;;;;;;;-2.20;86.00;;;;;;5023494;28;87186;-44
2021/12/22 10:38:06;;;;;;;;;;;-2.20;85.90;;;;;;5023367;28;87941;-44
2021/12/22 10:40:42;;;;;;;;;;;-2.10;85.60;;;;;;5022117;28;90710;-44
2021/12/22 10:43:09;;;;;;;;;;;-2.20;85.90;;;;;;5026224;28;86987;-44
2021/12/22 10:45:35;;;;;;;;;;;-2.20;85.50;;;;;;5023086;28;89701;-44
2021/12/22 10:50:51;;;;;;;;;;;-2.10;85.50;;;;;;5021877;28;86860;-45
2021/12/22 10:53:16;;;;;;;;;;;-2.10;85.90;;;;;;5022709;28;87187;-44
2021/12/22 10:55:43;;;;;;;;;;;-2.20;85.90;;;;;;5023259;28;87122;-44
2021/12/22 10:58:18;;;;;;;;;;;-2.20;85.80;;;;;;5021835;28;90877;-45
2021/12/22 11:00:43;;;;;;;;;;;-2.10;85.90;;;;;;5023142;28;87208;-44
2021/12/22 11:03:13;;;;;;;;;;;-2.10;86.20;;;;;;5022881;28;87117;-45
2021/12/22 11:05:46;;;;;;;;;;;-2.10;86.00;;;;;;5024853;28;88799;-44
2021/12/22 11:08:21;;;;;;;;;;;-2.10;86.10;;;;;;5022864;28;87101;-44
2021/12/22 11:10:49;;;;;;;;;;;-2.20;86.10;;;;;;5022803;28;88739;-44
2021/12/22 11:13:22;;;;;;;;;;;-2.10;85.90;;;;;;5022532;28;89630;-44
2021/12/22 11:15:48;;;;;;;;;;;-2.10;86.20;;;;;;5022500;28;87130;-44
2021/12/22 11:18:26;;;;;;;;;;;-2.10;86.00;;;;;;5022623;28;88808;-44
2021/12/22 11:21:10;;;;;;;;;;;-2.10;86.30;;;;;;5022638;28;87940;-44
2021/12/22 11:23:36;;;;;;;;;;;-2.10;86.20;;;;;;5022970;28;86362;-44
2021/12/22 11:26:03;;;;;;;;;;;-2.10;86.30;;;;;;5022618;28;88287;-44
2021/12/22 11:28:29;;;;;;;;;;;-2.10;86.50;;;;;;5025344;28;87831;-44
2021/12/22 11:30:55;;;;;;;;;;;-2.10;86.50;;;;;;5022056;28;89095;-45
2021/12/22 11:33:21;;;;;;;;;;;-2.10;86.80;;;;;;5022193;28;89696;-45
2021/12/22 11:35:47;;;;;;;;;;;-2.10;86.10;;;;;;5024118;28;87132;-45
2021/12/22 11:38:12;;;;;;;;;;;-2.10;86.30;;;;;;5024951;28;89506;-44
2021/12/22 11:40:40;;;;;;;;;;;-2.10;86.40;;;;;;5025677;28;89564;-44
2021/12/22 11:43:06;;;;;;;;;;;-2.10;86.40;;;;;;5025887;28;87080;-44
2021/12/22 11:45:33;;;;;;;;;;;-2.10;86.30;;;;;;5025815;28;89289;-44
2021/12/22 11:48:00;;;;;;;;;;;-2.10;86.50;;;;;;5025872;28;89247;-45
2021/12/22 11:50:29;;;;;;;;;;;-2.10;86.50;;;;;;5028762;28;87114;-44
2021/12/22 11:53:06;;;;;;;;;;;-2.00;86.70;;;;;;5025561;28;88026;-44
2021/12/22 11:55:37;;;;;;;;;;;-2.10;86.50;;;;;;5025074;28;88055;-44
2021/12/22 11:58:19;;;;;;;;;;;-2.10;86.50;;;;;;5025800;28;88422;-44
2021/12/22 12:00:45;;;;;;;;;;;-2.00;86.50;;;;;;5025435;28;87854;-45
2021/12/22 12:03:33;;;;;;;;;;;-2.10;86.40;;;;;;5025433;28;87138;-44
2021/12/22 12:06:18;;;;;;;;;;;-2.10;86.60;;;;;;5025396;28;88721;-44
2021/12/22 12:08:54;;;;;;;;;;;-2.00;86.70;;;;;;5025208;28;87200;-44
2021/12/22 12:11:46;;;;;;;;;;;-2.00;86.60;;;;;;5025662;28;87100;-44
2021/12/22 12:15:27;;;;;;;;;;;-2.00;86.90;;;;;;5027930;28;89276;-44
2021/12/22 12:23:16;;;;;;;;;;;-2.00;87.00;;;;;;5024671;28;88154;-44
2021/12/22 12:25:42;;;;;;;;;;;-2.00;87.00;;;;;;5025553;28;87171;-44
2021/12/22 12:28:18;;;;;;;;;;;-2.00;86.80;;;;;;5025630;28;87299;-44
2021/12/22 12:30:43;;;;;;;;;;;-2.00;87.00;;;;;;5025045;28;88124;-44
2021/12/22 12:33:18;;;;;;;;;;;-2.00;86.80;;;;;;5025109;28;87155;-44
2021/12/22 12:36:04;;;;;;;;;;;-2.00;87.00;;;;;;5027997;28;87444;-45
2021/12/22 12:38:45;;;;;;;;;;;-2.10;86.90;;;;;;5024845;28;87012;-44
2021/12/22 12:41:13;;;;;;;;;;;-2.00;87.20;;;;;;5025380;28;88670;-44
2021/12/22 12:43:45;;;;;;;;;;;-2.00;86.80;;;;;;5024610;28;89607;-44
2021/12/22 12:46:38;;;;;;;;;;;-2.00;86.70;;;;;;5024622;28;87095;-45
2021/12/22 12:49:04;;;;;;;;;;;-2.00;86.80;;;;;;5024350;28;88783;-45
2021/12/22 12:51:35;;;;;;;;;;;-1.90;86.90;;;;;;5024380;28;89298;-44
2021/12/22 12:54:25;;;;;;;;;;;-2.00;86.60;;;;;;5024674;28;87204;-44
2021/12/22 12:56:59;;;;;;;;;;;-2.00;87.00;;;;;;5024856;28;89247;-45
2021/12/22 12:59:37;;;;;;;;;;;-2.00;86.80;;;;;;5027362;28;89501;-44
2021/12/22 13:02:03;;;;;;;;;;;-2.00;86.70;;;;;;5025313;28;86911;-45
2021/12/22 13:04:33;;;;;;;;;;;-2.00;86.70;;;;;;5024151;28;90028;-44
2021/12/22 13:07:01;;;;;;;;;;;-2.00;86.70;;;;;;5024918;28;86385;-44
2021/12/22 13:09:36;;;;;;;;;;;-1.90;86.60;;;;;;5024471;28;88338;-44
2021/12/22 13:12:14;;;;;;;;;;;-1.90;86.50;;;;;;5024464;28;89506;-45
2021/12/22 13:17:26;;;;;;;;;;;-1.90;86.90;;;;;;5024767;28;87577;-44
2021/12/22 13:19:57;;;;;;;;;;;-1.90;87.10;;;;;;5023934;28;89424;-44
2021/12/22 13:22:25;;;;;;;;;;;-1.90;86.60;;;;;;5027521;28;86810;-44
2021/12/22 13:25:09;;;;;;;;;;;-1.80;86.30;;;;;;5023830;28;89431;-44
2021/12/22 13:27:35;;;;;;;;;;;-1.80;86.20;;;;;;5024347;28;87164;-44
2021/12/22 13:30:03;;;;;;;;;;;-1.80;86.40;;;;;;5024202;28;88987;-44
2021/12/22 13:32:29;;;;;;;;;;;-1.80;86.40;;;;;;5024547;28;88895;-45
2021/12/22 13:34:58;;;;;;;;;;;-1.80;86.10;;;;;;5023788;28;87091;-46
2021/12/22 13:37:24;;;;;;;;;;;-1.80;86.20;;;;;;5023986;28;87335;-45
2021/12/22 13:39:50;;;;;;;;;;;-1.70;86.10;;;;;;5022954;28;90732;-44
2021/12/22 13:42:15;;;;;;;;;;;-1.70;85.80;;;;;;5024022;28;87086;-45
2021/12/22 13:44:41;;;;;;;;;;;-1.70;86.20;;;;;;5026803;28;87497;-45
2021/12/22 13:47:06;;;;;;;;;;;-1.70;86.10;;;;;;5023917;28;87127;-44
2021/12/22 13:49:33;;;;;;;;;;;-1.70;86.00;;;;;;5023780;28;88820;-45
2021/12/22 13:51:59;;;;;;;;;;;-1.70;85.90;;;;;;5023571;28;89547;-45
2021/12/22 13:54:27;;;;;;;;;;;-1.70;85.60;;;;;;5023803;28;86991;-44
2021/12/22 13:56:57;;;;;;;;;;;-1.60;85.50;;;;;;5024114;28;88889;-44
2021/12/22 13:59:24;;;;;;;;;;;-1.60;85.70;;;;;;5022508;28;90816;-45
2021/12/22 14:01:55;;;;;;;;;;;-1.60;85.70;;;;;;5023691;28;87014;-44
2021/12/22 14:04:31;;;;;;;;;;;-1.60;85.50;;;;;;5023255;28;88898;-45
2021/12/22 14:07:08;;;;;;;;;;;-1.60;85.40;;;;;;5026507;28;89389;-44
2021/12/22 14:09:41;;;;;;;;;;;-1.60;85.80;;;;;;5023884;28;87758;-47
2021/12/22 14:12:10;;;;;;;;;;;-1.60;85.50;;;;;;5023701;28;88158;-44
2021/12/22 14:14:43;;;;;;;;;;;-1.60;85.30;;;;;;5022775;28;87273;-45
2021/12/22 14:17:18;;;;;;;;;;;-1.60;85.50;;;;;;5023449;28;88617;-44
2021/12/22 14:19:51;;;;;;;;;;;-1.60;85.50;;;;;;5023070;28;88973;-44
2021/12/22 14:22:18;;;;;;;;;;;-1.50;85.60;;;;;;5024307;28;86100;-44
2021/12/22 14:24:47;;;;;;;;;;;-1.50;85.40;;;;;;5023382;28;88175;-45
2021/12/22 14:27:14;;;;;;;;;;;-1.50;85.40;;;;;;5023088;28;89513;-44
2021/12/22 14:29:49;;;;;;;;;;;-1.50;85.60;;;;;;5025757;28;88106;-45
2021/12/22 14:32:22;;;;;;;;;;;-1.50;85.60;;;;;;5023020;28;90123;-45
2021/12/22 14:35:07;;;;;;;;;;;-1.50;85.80;;;;;;5023464;28;86926;-45
2021/12/22 14:37:33;;;;;;;;;;;-1.50;85.50;;;;;;5023143;28;89193;-44
2021/12/22 14:39:59;;;;;;;;;;;-1.50;85.60;;;;;;5022827;28;89212;-44
2021/12/22 14:42:26;;;;;;;;;;;-1.50;85.60;;;;;;5023406;28;86884;-45
2021/12/22 14:45:12;;;;;;;;;;;-1.50;85.50;;;;;;5022997;28;89057;-44
2021/12/22 14:47:37;;;;;;;;;;;-1.50;85.30;;;;;;5023310;28;88462;-44
2021/12/22 14:50:10;;;;;;;;;;;-1.60;85.40;;;;;;5026004;28;87021;-45
2021/12/22 14:52:36;;;;;;;;;;;-1.60;85.70;;;;;;5022660;28;89502;-45
2021/12/22 14:55:01;;;;;;;;;;;-1.60;85.90;;;;;;5022272;28;87743;-45